createdAt,value
2022-11-19T00:02:06.027Z,8.50
2022-11-19T00:04:32.663Z,8.60
2022-11-19T00:07:03.752Z,8.60
2022-11-19T00:09:30.472Z,8.70
2022-11-19T00:12:15.664Z,8.60
2022-11-19T00:14:42.369Z,8.50
2022-11-19T00:17:11.152Z,8.50
2022-11-19T00:19:37.863Z,8.50
2022-11-19T00:22:04.542Z,8.50
2022-11-19T00:24:31.225Z,8.40
2022-11-19T00:27:00.576Z,8.40
2022-11-19T00:29:27.279Z,8.40
2022-11-19T00:31:54.029Z,8.50
2022-11-19T00:34:23.158Z,8.50
2022-11-19T00:36:50.832Z,8.50
2022-11-19T00:39:21.085Z,8.60
2022-11-19T00:41:48.175Z,8.60
2022-11-19T00:44:17.238Z,8.60
2022-11-19T00:46:43.879Z,8.50
2022-11-19T00:49:10.507Z,8.50
2022-11-19T00:51:39.628Z,8.40
2022-11-19T00:54:08.786Z,8.40
2022-11-19T00:56:35.440Z,8.40
2022-11-19T00:59:04.612Z,8.30
2022-11-19T01:01:38.615Z,8.30
2022-11-19T01:04:06.239Z,8.30
2022-11-19T01:06:35.575Z,8.30
2022-11-19T01:09:07.015Z,8.40
2022-11-19T01:11:37.908Z,8.40
2022-11-19T01:14:09.753Z,8.40
2022-11-19T01:16:41.420Z,8.50
2022-11-19T01:19:10.578Z,8.40
2022-11-19T01:21:40.916Z,8.50
2022-11-19T01:24:07.839Z,8.50
2022-11-19T01:26:44.265Z,8.40
2022-11-19T01:29:12.439Z,8.40
2022-11-19T01:31:41.333Z,8.40
2022-11-19T01:34:08.005Z,8.40
2022-11-19T01:36:34.669Z,8.40
2022-11-19T01:39:01.321Z,8.40
2022-11-19T01:41:30.762Z,8.40
2022-11-19T01:43:59.276Z,8.40
2022-11-19T01:46:34.658Z,8.50
2022-11-19T01:49:20.907Z,8.50
2022-11-19T01:51:52.201Z,8.60
2022-11-19T01:54:25.521Z,8.40
2022-11-19T01:56:54.464Z,8.40
2022-11-19T01:59:21.944Z,8.40
2022-11-19T02:01:51.141Z,8.40
2022-11-19T02:04:21.434Z,8.40
2022-11-19T02:06:48.310Z,8.30
2022-11-19T02:09:15.322Z,8.30
2022-11-19T02:12:10.961Z,8.30
2022-11-19T02:15:04.587Z,8.30
2022-11-19T02:17:52.123Z,8.40
2022-11-19T02:20:37.316Z,8.40
2022-11-19T02:23:22.513Z,8.40
2022-11-19T02:26:01.190Z,8.50
2022-11-19T02:28:30.821Z,8.50
2022-11-19T02:31:13.389Z,8.50
2022-11-19T02:33:59.497Z,8.50
2022-11-19T02:36:34.305Z,8.50
2022-11-19T02:39:13.230Z,8.50
2022-11-19T02:41:59.653Z,8.40
2022-11-19T02:44:48.894Z,8.40
2022-11-19T02:47:20.127Z,8.40
2022-11-19T02:49:52.055Z,8.40
2022-11-19T02:52:23.654Z,8.40
2022-11-19T02:54:50.287Z,8.50
2022-11-19T02:57:16.963Z,8.50
2022-11-19T03:00:19.257Z,8.40
2022-11-19T03:03:17.867Z,8.50
2022-11-19T03:05:51.016Z,8.50
2022-11-19T03:08:18.383Z,8.50
2022-11-19T03:11:21.403Z,8.50
2022-11-19T03:14:40.833Z,8.50
2022-11-19T03:17:25.692Z,8.50
2022-11-19T03:20:27.051Z,8.40
2022-11-19T03:23:20.012Z,8.40
2022-11-19T03:25:58.630Z,8.40
2022-11-19T03:28:29.109Z,8.40
2022-11-19T03:31:03.335Z,8.40
2022-11-19T03:33:46.967Z,8.50
2022-11-19T03:36:41.011Z,8.60
2022-11-19T03:39:15.210Z,8.60
2022-11-19T03:41:47.496Z,8.60
2022-11-19T03:44:23.232Z,8.60
2022-11-19T03:46:57.772Z,8.60
2022-11-19T03:49:31.662Z,8.60
2022-11-19T03:52:11.659Z,8.60
2022-11-19T03:54:39.701Z,8.50
2022-11-19T03:57:08.666Z,8.40
2022-11-19T03:59:35.457Z,8.40
2022-11-19T04:02:08.578Z,8.40
2022-11-19T04:04:35.606Z,8.40
2022-11-19T04:07:05.232Z,8.50
2022-11-19T04:09:32.033Z,8.60
2022-11-19T04:12:03.622Z,8.60
2022-11-19T04:14:33.114Z,8.60
2022-11-19T04:16:59.965Z,8.60
2022-11-19T04:19:29.115Z,8.60
2022-11-19T04:21:55.949Z,8.60
2022-11-19T04:24:22.594Z,10.00
2022-11-19T04:26:51.983Z,8.60
2022-11-19T04:29:18.934Z,8.60
2022-11-19T04:31:50.968Z,8.50
2022-11-19T04:34:17.822Z,8.50
2022-11-19T04:36:47.197Z,8.50
2022-11-19T04:39:13.884Z,8.40
2022-11-19T04:41:40.832Z,8.50
2022-11-19T04:44:10.340Z,8.60
2022-11-19T04:46:39.200Z,8.60
2022-11-19T04:49:10.880Z,8.60
2022-11-19T04:51:37.504Z,8.60
2022-11-19T04:54:08.992Z,8.60
2022-11-19T04:56:41.222Z,8.60
2022-11-19T04:59:08.285Z,8.70
2022-11-19T05:01:35.059Z,8.60
2022-11-19T05:04:01.693Z,8.60
2022-11-19T05:06:30.499Z,8.60
2022-11-19T05:08:57.146Z,8.60
2022-11-19T05:11:23.763Z,8.60
2022-11-19T05:13:50.410Z,8.60
2022-11-19T05:16:17.186Z,8.60
2022-11-19T05:18:46.325Z,8.60
2022-11-19T05:21:15.305Z,8.60
2022-11-19T05:23:44.166Z,8.60
2022-11-19T05:26:13.077Z,8.70
2022-11-19T05:28:40.222Z,8.70
2022-11-19T05:31:11.683Z,8.60
2022-11-19T05:33:40.447Z,8.60
2022-11-19T05:36:07.542Z,8.60
2022-11-19T05:38:37.396Z,8.60
2022-11-19T05:41:06.548Z,8.60
2022-11-19T05:43:33.216Z,8.60
2022-11-19T05:46:03.094Z,8.60
2022-11-19T05:48:30.176Z,8.60
2022-11-19T05:50:56.960Z,8.60
2022-11-19T05:53:23.659Z,8.60
2022-11-19T05:55:55.113Z,8.60
2022-11-19T05:58:24.014Z,8.70
2022-11-19T06:00:55.951Z,8.60
2022-11-19T06:03:27.892Z,8.70
2022-11-19T06:05:57.025Z,8.70
2022-11-19T06:08:23.749Z,8.70
2022-11-19T06:10:50.453Z,8.70
2022-11-19T06:13:20.006Z,8.70
2022-11-19T06:15:46.804Z,8.60
2022-11-19T06:18:15.734Z,8.60
2022-11-19T06:20:42.371Z,8.60
2022-11-19T06:23:09.109Z,8.60
2022-11-19T06:25:35.765Z,8.60
2022-11-19T06:28:05.022Z,8.60
2022-11-19T06:30:31.758Z,8.60
2022-11-19T06:32:58.379Z,8.60
2022-11-19T06:35:27.454Z,8.60
2022-11-19T06:37:56.279Z,8.60
2022-11-19T06:40:22.955Z,8.60
2022-11-19T06:42:51.052Z,8.60
2022-11-19T06:45:20.254Z,8.60
2022-11-19T06:47:48.916Z,8.60
2022-11-19T06:50:18.111Z,8.60
2022-11-19T06:52:46.952Z,8.60
2022-11-19T06:55:15.897Z,8.60
2022-11-19T06:57:42.592Z,8.50
2022-11-19T07:00:10.076Z,8.50
2022-11-19T07:02:37.780Z,8.50
2022-11-19T07:05:05.978Z,8.60
2022-11-19T07:07:33.616Z,8.60
2022-11-19T07:10:00.869Z,8.60
2022-11-19T07:12:29.791Z,8.60
2022-11-19T07:15:04.027Z,8.60
2022-11-19T07:17:31.254Z,8.60
2022-11-19T07:19:57.922Z,8.60
2022-11-19T07:22:27.467Z,8.60
2022-11-19T07:24:54.079Z,8.60
2022-11-19T07:27:20.781Z,8.60
2022-11-19T07:29:47.449Z,8.60
2022-11-19T07:32:14.083Z,8.70
2022-11-19T07:34:40.832Z,8.80
2022-11-19T07:37:07.493Z,8.70
2022-11-19T07:39:36.569Z,8.70
2022-11-19T07:42:21.738Z,8.70
2022-11-19T07:44:52.190Z,8.80
2022-11-19T07:47:21.948Z,8.80
2022-11-19T07:49:51.110Z,8.90
2022-11-19T07:52:20.922Z,9.00
2022-11-19T07:54:47.695Z,9.20
2022-11-19T07:57:16.687Z,9.10
2022-11-19T07:59:43.417Z,9.00
2022-11-19T08:02:15.818Z,9.00
2022-11-19T08:04:42.538Z,9.00
2022-11-19T08:07:09.384Z,9.00
2022-11-19T08:09:36.234Z,9.00
2022-11-19T08:12:05.321Z,9.00
2022-11-19T08:14:31.961Z,9.00
2022-11-19T08:17:17.223Z,9.10
2022-11-19T08:19:46.292Z,9.10
2022-11-19T08:22:16.136Z,9.10
2022-11-19T08:24:45.169Z,9.10
2022-11-19T08:27:12.852Z,9.20
2022-11-19T08:29:39.552Z,9.20
2022-11-19T08:32:06.274Z,9.20
2022-11-19T08:34:35.426Z,9.20
2022-11-19T08:37:02.219Z,9.30
2022-11-19T08:39:29.368Z,9.40
2022-11-19T08:42:17.295Z,9.50
2022-11-19T08:44:43.921Z,9.70
2022-11-19T08:47:10.628Z,9.90
2022-11-19T08:49:37.330Z,10.00
2022-11-19T08:52:08.757Z,10.10
2022-11-19T08:54:47.254Z,10.20
2022-11-19T08:57:14.047Z,10.30
2022-11-19T08:59:43.080Z,10.30
2022-11-19T09:02:14.093Z,8.70
2022-11-19T09:04:45.472Z,10.40
2022-11-19T09:07:14.316Z,10.50
2022-11-19T09:09:43.256Z,10.70
2022-11-19T09:12:10.156Z,10.80
2022-11-19T09:14:36.825Z,10.90
2022-11-19T09:17:03.768Z,11.10
2022-11-19T09:19:35.388Z,11.00
2022-11-19T09:22:04.639Z,11.10
2022-11-19T09:24:48.514Z,11.10
2022-11-19T09:27:17.562Z,11.00
2022-11-19T09:29:47.162Z,11.10
2022-11-19T09:32:18.876Z,11.00
2022-11-19T09:34:49.154Z,11.00
2022-11-19T09:37:18.346Z,11.00
2022-11-19T09:39:47.162Z,11.00
2022-11-19T09:42:25.844Z,11.20
2022-11-19T09:45:06.851Z,11.00
2022-11-19T09:47:50.379Z,11.10
2022-11-19T09:50:23.921Z,11.20
2022-11-19T09:53:14.278Z,11.20
2022-11-19T09:55:46.633Z,11.30
2022-11-19T09:58:31.230Z,11.40
2022-11-19T10:01:02.675Z,11.40
2022-11-19T10:03:35.291Z,11.40
2022-11-19T10:06:07.790Z,11.40
2022-11-19T10:08:41.596Z,11.40
2022-11-19T10:11:29.076Z,11.30
2022-11-19T10:14:23.549Z,11.20
2022-11-19T10:17:00.482Z,11.20
2022-11-19T10:19:48.211Z,11.10
2022-11-19T10:22:14.840Z,11.00
2022-11-19T10:24:52.248Z,11.00
2022-11-19T10:27:28.438Z,11.00
2022-11-19T10:29:58.268Z,11.00
2022-11-19T10:32:34.820Z,11.40
2022-11-19T10:35:08.964Z,11.10
2022-11-19T10:37:41.335Z,11.10
2022-11-19T10:40:45.701Z,11.30
2022-11-19T10:43:33.147Z,11.50
2022-11-19T10:46:04.095Z,11.70
2022-11-19T10:48:46.175Z,11.80
2022-11-19T10:51:23.030Z,11.80
2022-11-19T10:53:52.166Z,11.80
2022-11-19T10:56:22.792Z,11.80
2022-11-19T10:58:58.320Z,11.70
2022-11-19T11:01:38.956Z,11.80
2022-11-19T11:04:13.881Z,11.90
2022-11-19T11:07:00.146Z,11.90
2022-11-19T11:09:29.964Z,12.10
2022-11-19T11:12:20.203Z,12.20
2022-11-19T11:14:54.689Z,12.30
2022-11-19T11:17:25.714Z,12.30
2022-11-19T11:20:28.416Z,12.40
2022-11-19T11:23:09.617Z,12.50
2022-11-19T11:25:38.280Z,12.50
2022-11-19T11:28:20.070Z,12.60
2022-11-19T11:31:04.155Z,12.60
2022-11-19T11:33:34.972Z,12.60
2022-11-19T11:36:19.441Z,12.60
2022-11-19T11:38:52.037Z,12.70
2022-11-19T11:44:14.382Z,12.70
2022-11-19T11:46:51.089Z,12.70
2022-11-19T11:49:28.603Z,12.70
2022-11-19T11:51:57.134Z,12.60
2022-11-19T11:54:23.826Z,12.70
2022-11-19T11:56:52.864Z,12.50
2022-11-19T11:59:32.676Z,12.40
2022-11-19T12:02:08.636Z,12.40
2022-11-19T12:04:35.755Z,12.30
2022-11-19T12:07:22.672Z,12.60
2022-11-19T12:10:03.482Z,12.30
2022-11-19T12:12:40.989Z,12.30
2022-11-19T12:15:41.944Z,12.30
2022-11-19T12:18:36.368Z,12.30
2022-11-19T12:21:23.304Z,12.20
2022-11-19T12:24:02.890Z,12.30
2022-11-19T12:27:04.535Z,12.30
2022-11-19T12:29:44.188Z,12.30
2022-11-19T12:32:41.083Z,12.40
2022-11-19T12:35:32.251Z,12.30
2022-11-19T12:38:04.092Z,12.40
2022-11-19T12:40:42.478Z,12.40
2022-11-19T12:43:27.323Z,12.40
2022-11-19T12:46:28.414Z,12.40
2022-11-19T12:48:58.152Z,12.30
2022-11-19T12:51:45.672Z,12.20
2022-11-19T12:54:47.574Z,12.10
2022-11-19T12:57:49.638Z,12.00
2022-11-19T13:00:24.842Z,12.00
2022-11-19T13:03:06.697Z,12.30
2022-11-19T13:05:33.361Z,11.90
2022-11-19T13:08:10.651Z,11.90
2022-11-19T13:10:42.211Z,11.80
2022-11-19T13:13:14.860Z,11.80
2022-11-19T13:16:12.411Z,11.80
2022-11-19T13:18:45.291Z,11.80
2022-11-19T13:21:59.468Z,11.70
2022-11-19T13:24:40.919Z,11.70
2022-11-19T13:27:23.645Z,11.70
2022-11-19T13:30:06.394Z,11.60
2022-11-19T13:33:05.206Z,11.60
2022-11-19T13:35:34.436Z,11.50
2022-11-19T13:38:22.365Z,11.50
2022-11-19T13:41:02.005Z,11.60
2022-11-19T13:43:47.372Z,11.60
2022-11-19T13:46:13.973Z,11.70
2022-11-19T13:48:52.219Z,12.10
2022-11-19T13:51:27.685Z,11.80
2022-11-19T13:54:02.412Z,11.80
2022-11-19T13:56:45.793Z,11.80
2022-11-19T13:59:29.775Z,11.80
2022-11-19T14:02:15.045Z,11.80
2022-11-19T14:04:47.509Z,11.80
2022-11-19T14:07:17.049Z,11.80
2022-11-19T14:09:53.312Z,11.80
2022-11-19T14:12:57.083Z,11.90
2022-11-19T14:16:15.859Z,11.80
2022-11-19T14:19:08.058Z,11.80
2022-11-19T14:21:53.522Z,11.70
2022-11-19T14:24:44.619Z,11.80
2022-11-19T14:27:27.413Z,11.70
2022-11-19T14:30:04.637Z,11.60
2022-11-19T14:32:45.387Z,11.50
2022-11-19T14:35:30.672Z,11.40
2022-11-19T14:37:59.271Z,11.30
2022-11-19T14:40:28.715Z,11.30
2022-11-19T14:43:20.005Z,11.20
2022-11-19T14:46:04.574Z,11.20
2022-11-19T14:48:49.015Z,11.10
2022-11-19T14:51:20.897Z,11.10
2022-11-19T14:54:14.882Z,11.10
2022-11-19T14:56:45.752Z,10.90
2022-11-19T14:59:17.512Z,10.90
2022-11-19T15:02:07.030Z,10.80
2022-11-19T15:04:44.084Z,10.70
2022-11-19T15:07:14.961Z,10.90
2022-11-19T15:09:51.048Z,10.70
2022-11-19T15:12:20.347Z,10.60
2022-11-19T15:15:07.472Z,10.70
2022-11-19T15:17:35.423Z,10.60
2022-11-19T15:20:24.384Z,10.60
2022-11-19T15:22:59.918Z,10.50
2022-11-19T15:25:52.659Z,10.50
2022-11-19T15:28:59.185Z,10.50
2022-11-19T15:31:48.538Z,10.40
2022-11-19T15:35:03.819Z,10.30
2022-11-19T15:38:19.905Z,10.30
2022-11-19T15:40:52.045Z,10.20
2022-11-19T15:43:23.988Z,10.20
2022-11-19T15:45:55.652Z,10.20
2022-11-19T15:48:36.411Z,10.20
2022-11-19T15:51:04.483Z,10.20
2022-11-19T15:53:31.310Z,10.10
2022-11-19T15:55:57.978Z,11.30
2022-11-19T15:58:43.253Z,10.20
2022-11-19T16:01:15.004Z,10.00
2022-11-19T16:03:41.810Z,10.00
2022-11-19T16:06:19.843Z,9.90
2022-11-19T16:08:51.595Z,9.80
2022-11-19T16:11:41.897Z,9.70
2022-11-19T16:14:58.431Z,9.70
2022-11-19T16:17:41.723Z,9.70
2022-11-19T16:20:10.034Z,9.70
2022-11-19T16:22:56.299Z,9.70
2022-11-19T16:25:26.025Z,9.70
2022-11-19T16:27:56.999Z,9.70
2022-11-19T16:30:31.169Z,9.60
2022-11-19T16:33:01.364Z,9.50
2022-11-19T16:35:32.769Z,9.40
2022-11-19T16:38:01.444Z,9.40
2022-11-19T16:40:51.361Z,9.30
2022-11-19T16:43:18.949Z,9.20
2022-11-19T16:45:49.095Z,9.30
2022-11-19T16:48:47.802Z,9.30
2022-11-19T16:51:38.044Z,9.30
2022-11-19T16:54:09.664Z,9.30
2022-11-19T16:56:43.988Z,9.30
2022-11-19T16:59:19.693Z,9.40
2022-11-19T17:01:55.042Z,9.40
2022-11-19T17:04:24.877Z,9.40
2022-11-19T17:06:54.204Z,9.30
2022-11-19T17:09:44.763Z,9.30
2022-11-19T17:12:29.439Z,11.40
2022-11-19T17:15:01.569Z,9.30
2022-11-19T17:17:40.928Z,9.30
2022-11-19T17:20:30.482Z,9.30
2022-11-19T17:22:59.851Z,9.20
2022-11-19T17:25:26.721Z,9.30
2022-11-19T17:27:58.350Z,9.30
2022-11-19T17:30:32.098Z,9.30
2022-11-19T17:33:04.385Z,9.20
2022-11-19T17:35:36.386Z,9.20
2022-11-19T17:38:10.374Z,9.20
2022-11-19T17:40:38.022Z,9.20
2022-11-19T17:43:28.877Z,9.20
2022-11-19T17:45:58.152Z,9.20
2022-11-19T17:48:26.433Z,9.20
2022-11-19T17:50:54.464Z,9.20
2022-11-19T17:53:24.397Z,9.10
2022-11-19T17:55:53.989Z,9.20
2022-11-19T17:58:21.215Z,9.20
2022-11-19T18:00:48.189Z,9.20
2022-11-19T18:03:15.730Z,10.90
2022-11-19T18:05:48.197Z,9.10
2022-11-19T18:08:17.999Z,9.10
2022-11-19T18:10:49.310Z,9.10
2022-11-19T18:13:21.952Z,9.10
2022-11-19T18:15:51.030Z,9.10
2022-11-19T18:18:19.947Z,9.10
2022-11-19T18:20:54.564Z,9.10
2022-11-19T18:23:28.982Z,9.00
2022-11-19T18:25:55.601Z,9.00
2022-11-19T18:28:22.329Z,9.00
2022-11-19T18:30:48.959Z,9.00
2022-11-19T18:33:15.651Z,9.00
2022-11-19T18:35:44.614Z,9.00
2022-11-19T18:38:13.705Z,9.10
2022-11-19T18:40:42.838Z,9.10
2022-11-19T18:43:28.292Z,9.30
2022-11-19T18:45:57.402Z,9.10
2022-11-19T18:48:26.153Z,9.10
2022-11-19T18:50:52.939Z,9.10
2022-11-19T18:53:22.136Z,9.10
2022-11-19T18:55:48.800Z,9.00
2022-11-19T18:58:17.909Z,9.00
2022-11-19T19:00:44.667Z,9.00
2022-11-19T19:03:13.691Z,9.40
2022-11-19T19:05:40.658Z,9.10
2022-11-19T19:08:08.917Z,9.10
2022-11-19T19:10:38.080Z,9.10
2022-11-19T19:13:06.918Z,9.20
2022-11-19T19:15:35.821Z,9.20
2022-11-19T19:18:08.040Z,9.10
2022-11-19T19:20:37.061Z,9.10
2022-11-19T19:23:03.831Z,9.10
2022-11-19T19:25:30.568Z,9.10
2022-11-19T19:27:57.529Z,9.10
2022-11-19T19:30:24.183Z,9.00
2022-11-19T19:32:50.968Z,9.00
2022-11-19T19:35:20.050Z,9.00
2022-11-19T19:37:48.271Z,9.10
2022-11-19T19:40:17.307Z,9.10
2022-11-19T19:42:43.933Z,9.10
2022-11-19T19:45:10.957Z,9.10
2022-11-19T19:47:37.617Z,9.10
2022-11-19T19:50:04.567Z,9.10
2022-11-19T19:52:33.685Z,9.00
2022-11-19T19:55:02.804Z,9.00
2022-11-19T19:57:30.273Z,9.00
2022-11-19T19:59:59.651Z,8.90
2022-11-19T20:02:26.319Z,8.90
2022-11-19T20:04:53.013Z,8.90
2022-11-19T20:07:22.657Z,8.80
2022-11-19T20:09:49.409Z,8.80
2022-11-19T20:12:18.228Z,8.80
2022-11-19T20:14:47.387Z,8.80
2022-11-19T20:17:16.545Z,8.80
2022-11-19T20:19:45.304Z,8.70
2022-11-19T20:22:11.966Z,8.80
2022-11-19T20:24:38.627Z,8.80
2022-11-19T20:27:07.762Z,8.70
2022-11-19T20:29:34.562Z,8.70
2022-11-19T20:32:03.970Z,8.60
2022-11-19T20:34:30.605Z,8.50
2022-11-19T20:36:59.858Z,8.60
2022-11-19T20:39:29.024Z,8.50
2022-11-19T20:42:16.667Z,8.50
2022-11-19T20:44:43.288Z,8.40
2022-11-19T20:47:14.745Z,8.40
2022-11-19T20:49:43.894Z,8.50
2022-11-19T20:52:10.818Z,8.40
2022-11-19T20:54:37.641Z,8.40
2022-11-19T20:57:04.540Z,8.40
2022-11-19T20:59:31.699Z,8.40
2022-11-19T21:01:58.537Z,8.60
2022-11-19T21:04:27.030Z,8.30
2022-11-19T21:06:56.340Z,8.20
2022-11-19T21:09:23.487Z,8.20
2022-11-19T21:11:50.620Z,8.20
2022-11-19T21:14:19.643Z,8.10
2022-11-19T21:16:46.326Z,8.10
2022-11-19T21:19:15.509Z,8.10
2022-11-19T21:21:42.354Z,8.10
2022-11-19T21:24:11.562Z,8.10
2022-11-19T21:26:38.294Z,8.10
2022-11-19T21:29:04.954Z,8.10
2022-11-19T21:31:38.845Z,8.10
2022-11-19T21:34:23.141Z,8.10
2022-11-19T21:36:52.365Z,8.00
2022-11-19T21:39:22.169Z,7.90
2022-11-19T21:41:49.010Z,7.90
2022-11-19T21:44:21.513Z,7.80
2022-11-19T21:46:49.020Z,7.70
2022-11-19T21:49:18.854Z,7.70
2022-11-19T21:51:45.781Z,7.70
2022-11-19T21:54:14.653Z,7.70
2022-11-19T21:56:41.369Z,7.70
2022-11-19T21:59:08.117Z,7.70
2022-11-19T22:01:36.997Z,7.70
2022-11-19T22:04:06.667Z,7.70
2022-11-19T22:06:33.631Z,7.70
2022-11-19T22:09:00.317Z,7.70
2022-11-19T22:11:32.391Z,7.60
2022-11-19T22:14:04.974Z,7.70
2022-11-19T22:16:37.035Z,7.60
2022-11-19T22:19:05.509Z,7.60
2022-11-19T22:21:32.752Z,7.60
2022-11-19T22:23:59.982Z,7.60
2022-11-19T22:26:29.198Z,7.50
2022-11-19T22:28:58.285Z,7.50
2022-11-19T22:31:25.665Z,7.50
2022-11-19T22:33:55.505Z,7.50
2022-11-19T22:36:23.061Z,6.80
2022-11-19T22:38:51.276Z,7.50
2022-11-19T22:41:25.446Z,7.50
2022-11-19T22:43:52.114Z,7.50
2022-11-19T22:46:19.450Z,7.50
2022-11-19T22:48:48.659Z,7.50
2022-11-19T22:51:18.505Z,7.40
2022-11-19T22:53:45.277Z,7.40
2022-11-19T22:56:14.291Z,7.30
2022-11-19T22:58:46.877Z,7.30
2022-11-19T23:01:23.409Z,7.20
2022-11-19T23:03:51.102Z,7.30
2022-11-19T23:06:18.341Z,7.20
2022-11-19T23:08:45.449Z,7.20
2022-11-19T23:11:14.590Z,7.20
2022-11-19T23:13:43.600Z,7.20
2022-11-19T23:16:19.113Z,7.30
2022-11-19T23:18:52.984Z,7.20
2022-11-19T23:21:22.975Z,7.20
2022-11-19T23:23:50.290Z,7.20
2022-11-19T23:26:24.810Z,7.20
2022-11-19T23:28:52.909Z,7.10
2022-11-19T23:31:27.756Z,7.00
2022-11-19T23:33:59.102Z,7.00
2022-11-19T23:36:30.995Z,6.90
2022-11-19T23:38:58.902Z,6.90
2022-11-19T23:41:25.964Z,6.90
2022-11-19T23:43:55.263Z,6.80
2022-11-19T23:46:30.077Z,6.80
2022-11-19T23:48:58.007Z,6.80
2022-11-19T23:51:29.776Z,6.80
2022-11-19T23:53:57.056Z,6.80
2022-11-19T23:56:28.637Z,6.90
2022-11-19T23:58:55.500Z,6.80
